Time;durP1;ratioP1;P1;durP2;ratioP2;P2;SDS_P1;SDS_P2;PMS_P1;PMS_P2;Temp;Humidity;BMP_temperature;BMP_pressure;BME280_temperature;BME280_humidity;BME280_pressure;Samples;Min_cycle;Max_cycle;Signal;HPM_P1;HPM_P2
2023/10/05 00:02:04;;;;;;;9.68;2.92;;;14.20;99.90;;;;;;4956349;29;20023;-72
2023/10/05 00:04:39;;;;;;;8.43;3.53;;;14.20;99.90;;;;;;4956389;29;20384;-72
2023/10/05 00:07:08;;;;;;;7.68;2.85;;;14.20;99.90;;;;;;4956418;29;20031;-72
2023/10/05 00:09:33;;;;;;;13.15;3.22;;;14.10;99.90;;;;;;4955679;29;20030;-72
2023/10/05 00:12:02;;;;;;;6.30;2.78;;;14.10;99.90;;;;;;4956220;29;20035;-72
2023/10/05 00:14:28;;;;;;;7.32;3.33;;;14.10;99.90;;;;;;4955871;29;20042;-72
2023/10/05 00:16:55;;;;;;;8.10;2.95;;;14.00;99.90;;;;;;4956127;29;20066;-73
2023/10/05 00:19:22;;;;;;;9.88;2.58;;;13.90;99.90;;;;;;4949022;29;20019;-72
2023/10/05 00:21:52;;;;;;;8.45;2.80;;;13.90;99.90;;;;;;4952813;29;20042;-73
2023/10/05 00:24:24;;;;;;;6.78;2.92;;;13.90;99.90;;;;;;4952492;29;20473;-72
2023/10/05 00:26:50;;;;;;;6.55;3.10;;;13.90;99.90;;;;;;4949201;29;20037;-73
2023/10/05 00:29:25;;;;;;;8.85;2.88;;;13.90;99.90;;;;;;4956079;29;20467;-72
2023/10/05 00:31:52;;;;;;;6.68;2.47;;;13.90;99.90;;;;;;4955636;29;20563;-71
2023/10/05 00:36:50;;;;;;;10.55;2.88;;;13.90;99.90;;;;;;4938226;29;20438;-72
2023/10/05 00:39:20;;;;;;;6.75;3.03;;;13.80;99.90;;;;;;4956059;28;20089;-72
2023/10/05 00:41:53;;;;;;;8.38;2.80;;;13.80;99.90;;;;;;4955681;29;20423;-72
2023/10/05 00:44:19;;;;;;;8.95;2.95;;;13.80;99.90;;;;;;4955588;28;20048;-73
2023/10/05 00:46:50;;;;;;;7.82;3.10;;;13.80;99.90;;;;;;4954381;28;20074;-72
2023/10/05 00:49:23;;;;;;;6.13;2.95;;;13.80;99.90;;;;;;4955692;28;20053;-72
2023/10/05 00:54:31;;;;;;;11.38;2.80;;;13.70;99.90;;;;;;4955322;29;20042;-73
2023/10/05 00:57:08;;;;;;;6.18;2.78;;;13.60;99.90;;;;;;4957085;28;21472;-73
2023/10/05 00:59:36;;;;;;;7.63;2.80;;;13.70;99.90;;;;;;4955360;28;20823;-72
2023/10/05 01:04:35;;;;;;;7.43;3.42;;;13.70;99.90;;;;;;4952721;29;20115;-72
2023/10/05 01:07:26;;;;;;;;;;;13.80;99.90;;;;;;4954053;29;20043;-72
2023/10/05 01:10:43;;;;;;;7.45;2.50;;;13.80;99.90;;;;;;4952055;29;19925;-72
2023/10/05 01:12:47;;;;;;;8.23;3.08;;;13.80;99.90;;;;;;4952586;28;20137;-71
2023/10/05 01:15:19;;;;;;;6.97;2.83;;;13.70;99.90;;;;;;4944150;29;20035;-72
2023/10/05 01:17:51;;;;;;;6.68;2.80;;;13.70;99.90;;;;;;4953500;29;20058;-72
2023/10/05 01:22:46;;;;;;;6.75;3.20;;;13.70;99.90;;;;;;4934351;29;20472;-72
2023/10/05 01:25:14;;;;;;;17.98;3.25;;;13.70;99.90;;;;;;4948771;29;20027;-73
2023/10/05 01:27:45;;;;;;;7.30;3.35;;;13.70;99.90;;;;;;4947142;28;20098;-72
2023/10/05 01:30:15;;;;;;;7.35;3.67;;;13.60;99.90;;;;;;4948055;29;20035;-72
2023/10/05 01:32:42;;;;;;;10.57;2.95;;;13.60;99.90;;;;;;4949648;29;20024;-73
2023/10/05 01:35:15;;;;;;;6.85;3.38;;;13.60;99.90;;;;;;4954621;29;20467;-72
2023/10/05 01:37:45;;;;;;;7.85;3.47;;;13.60;99.90;;;;;;4943189;29;20028;-72
2023/10/05 01:40:25;;;;;;;12.75;3.60;;;13.50;99.90;;;;;;4942564;29;20395;-72
2023/10/05 01:42:52;;;;;;;11.57;3.90;;;13.60;99.90;;;;;;4954718;29;20037;-71
2023/10/05 01:45:29;;;;;;;9.43;3.85;;;13.60;99.90;;;;;;4954666;29;20486;-72
2023/10/05 01:47:56;;;;;;;9.88;3.72;;;13.60;99.90;;;;;;4953434;28;20047;-72
2023/10/05 01:50:22;;;;;;;8.27;3.50;;;13.60;99.90;;;;;;4949674;29;20040;-72
2023/10/05 01:53:14;;;;;;;8.75;3.22;;;13.50;99.90;;;;;;4954499;29;20360;-73
2023/10/05 01:55:44;;;;;;;8.95;3.67;;;13.40;99.90;;;;;;4954677;29;20035;-71
2023/10/05 01:58:13;;;;;;;6.50;3.20;;;13.40;99.90;;;;;;4953109;28;20475;-72
2023/10/05 02:00:40;;;;;;;7.28;3.22;;;13.50;99.90;;;;;;4952949;28;20035;-72
2023/10/05 02:03:07;;;;;;;10.52;3.80;;;13.40;99.90;;;;;;4950148;29;20442;-73
2023/10/05 02:05:36;;;;;;;11.38;4.18;;;13.40;99.90;;;;;;4932580;29;20040;-73
2023/10/05 02:08:03;;;;;;;8.95;4.38;;;13.30;99.90;;;;;;4952677;29;20062;-72
2023/10/05 02:10:33;;;;;;;10.15;4.03;;;13.30;99.90;;;;;;4952756;29;20067;-72
2023/10/05 02:13:01;;;;;;;8.85;3.40;;;13.20;99.90;;;;;;4951462;28;20024;-72
2023/10/05 02:15:30;;;;;;;8.25;3.35;;;13.20;99.90;;;;;;4953853;29;20386;-73
2023/10/05 02:18:13;;;;;;;7.53;3.78;;;13.20;99.90;;;;;;4935980;29;20038;-71
2023/10/05 02:20:45;;;;;;;17.70;3.95;;;13.10;99.90;;;;;;4953342;29;20055;-72
2023/10/05 02:23:26;;;;;;;9.90;4.15;;;13.10;99.90;;;;;;4953903;29;20082;-73
2023/10/05 02:26:01;;;;;;;7.40;3.97;;;13.10;99.90;;;;;;4953484;29;20118;-73
2023/10/05 02:28:27;;;;;;;8.55;4.25;;;13.00;99.90;;;;;;4953899;29;20038;-73
2023/10/05 02:31:02;;;;;;;9.13;3.60;;;13.00;99.90;;;;;;4936718;29;20512;-71
2023/10/05 02:33:31;;;;;;;10.25;3.92;;;13.00;99.90;;;;;;4953902;29;20019;-73
2023/10/05 02:36:11;;;;;;;10.48;4.50;;;13.00;99.90;;;;;;4952071;29;20019;-73
2023/10/05 02:38:39;;;;;;;9.40;4.00;;;12.90;99.90;;;;;;4953646;29;20020;-73
2023/10/05 02:41:08;;;;;;;7.60;3.55;;;12.90;99.90;;;;;;4951357;29;20035;-72
2023/10/05 02:43:40;;;;;;;10.50;4.28;;;12.90;99.90;;;;;;4933397;29;20095;-73
2023/10/05 02:46:11;;;;;;;10.18;4.20;;;12.90;99.90;;;;;;4941404;28;20063;-72
2023/10/05 02:48:43;;;;;;;10.18;3.97;;;12.90;99.90;;;;;;4935046;29;20024;-73
2023/10/05 02:51:11;;;;;;;14.60;4.63;;;12.90;99.90;;;;;;4949779;29;20602;-73
2023/10/05 02:53:41;;;;;;;10.90;3.95;;;;;;;;;;4956433;29;20471;-73
2023/10/05 02:56:29;;;;;;;14.45;5.45;;;12.70;99.90;;;;;;4940056;29;20427;-72
2023/10/05 02:59:00;;;;;;;11.90;4.75;;;12.50;99.90;;;;;;4955804;28;20024;-72
2023/10/05 03:01:26;;;;;;;9.18;4.55;;;12.50;99.90;;;;;;4956880;29;20026;-72
2023/10/05 03:03:52;;;;;;;18.65;5.05;;;12.60;99.90;;;;;;4947164;29;20039;-72
2023/10/05 03:06:22;;;;;;;10.80;4.78;;;12.60;99.90;;;;;;4939388;29;20031;-73
2023/10/05 03:08:49;;;;;;;8.65;3.97;;;12.60;99.90;;;;;;4956175;29;20487;-72
2023/10/05 03:11:18;;;;;;;13.07;3.75;;;12.60;99.90;;;;;;4952603;29;20042;-73
2023/10/05 03:13:46;;;;;;;12.80;5.07;;;12.60;99.90;;;;;;4942871;29;20122;-72
2023/10/05 03:16:16;;;;;;;10.65;4.15;;;12.60;99.90;;;;;;4933896;29;20024;-72
2023/10/05 03:18:43;;;;;;;13.88;4.78;;;12.60;99.90;;;;;;4935853;29;20035;-73
2023/10/05 03:21:14;;;;;;;14.13;5.43;;;12.50;99.90;;;;;;4939802;29;20035;-72
2023/10/05 03:23:41;;;;;;;12.00;3.92;;;12.50;99.90;;;;;;4956683;29;20034;-72
2023/10/05 03:26:13;;;;;;;15.77;4.97;;;12.60;99.90;;;;;;4955373;28;20043;-71
2023/10/05 03:28:41;;;;;;;9.23;4.25;;;12.50;99.90;;;;;;4957086;29;20502;-71
2023/10/05 03:31:31;;;;;;;11.40;4.78;;;12.50;99.90;;;;;;4934195;29;20036;-71
2023/10/05 03:33:57;;;;;;;11.55;5.18;;;12.50;99.90;;;;;;4955759;29;20471;-72
2023/10/05 03:36:23;;;;;;;11.30;5.57;;;12.40;99.90;;;;;;4936371;29;20123;-71
2023/10/05 03:38:56;;;;;;;9.73;5.03;;;12.40;99.90;;;;;;4956142;29;20395;-72
2023/10/05 03:41:27;;;;;;;15.35;7.13;;;12.40;99.90;;;;;;4937062;29;20480;-72
2023/10/05 03:44:02;;;;;;;9.50;4.82;;;12.30;99.90;;;;;;4955537;28;20024;-73
2023/10/05 03:46:28;;;;;;;10.60;5.72;;;12.30;99.90;;;;;;4954851;28;20043;-73
2023/10/05 03:49:00;;;;;;;12.57;6.30;;;12.30;99.90;;;;;;4956625;29;20035;-73
2023/10/05 03:51:26;;;;;;;15.32;5.25;;;12.20;99.90;;;;;;4954740;29;20102;-73
2023/10/05 03:53:53;;;;;;;14.93;5.40;;;12.30;99.90;;;;;;4956463;29;20103;-72
2023/10/05 03:56:23;;;;;;;13.50;5.20;;;12.30;99.90;;;;;;4955012;28;20399;-73
2023/10/05 03:58:53;;;;;;;10.93;5.20;;;12.30;99.90;;;;;;4955320;28;20019;-73
2023/10/05 04:01:21;;;;;;;13.60;5.15;;;12.30;99.90;;;;;;4937996;29;20023;-72
2023/10/05 04:03:48;;;;;;;12.70;4.35;;;12.30;99.90;;;;;;4951220;29;20459;-73
2023/10/05 04:06:18;;;;;;;13.38;4.75;;;12.20;99.90;;;;;;4943520;29;20035;-72
2023/10/05 04:08:49;;;;;;;11.65;4.63;;;12.20;99.90;;;;;;4947984;28;20126;-71
2023/10/05 04:11:16;;;;;;;10.82;4.68;;;12.20;99.90;;;;;;4955682;29;20451;-73
2023/10/05 04:13:43;;;;;;;12.43;4.90;;;12.10;99.90;;;;;;4956216;29;20559;-73
2023/10/05 04:16:12;;;;;;;11.35;3.95;;;12.10;99.90;;;;;;4955698;29;20368;-73
2023/10/05 04:18:38;;;;;;;9.93;4.25;;;12.00;99.90;;;;;;4956008;29;20424;-73
2023/10/05 04:21:06;;;;;;;11.20;4.45;;;12.00;99.90;;;;;;4956098;29;20114;-73
2023/10/05 04:23:32;;;;;;;11.52;4.60;;;11.90;99.90;;;;;;4942992;29;20027;-72
2023/10/05 04:25:58;;;;;;;11.07;5.28;;;11.90;99.90;;;;;;4956128;29;20032;-72
2023/10/05 04:28:40;;;;;;;11.80;5.22;;;11.80;99.90;;;;;;4955875;29;20498;-72
2023/10/05 04:31:13;;;;;;;12.20;5.10;;;11.70;99.90;;;;;;4944468;29;20039;-73
2023/10/05 04:33:42;;;;;;;15.50;5.15;;;11.60;99.90;;;;;;4955451;29;20031;-72
2023/10/05 04:36:08;;;;;;;8.95;3.90;;;11.70;99.90;;;;;;4955621;29;20118;-74
2023/10/05 04:38:33;;;;;;;10.75;4.88;;;11.60;99.90;;;;;;4954958;29;20483;-74
2023/10/05 04:40:59;;;;;;;12.65;5.03;;;11.60;99.90;;;;;;4945827;29;20028;-73
2023/10/05 04:43:25;;;;;;;12.63;4.45;;;11.60;99.90;;;;;;4948822;29;20114;-72
2023/10/05 04:45:51;;;;;;;20.27;5.85;;;11.60;99.90;;;;;;4951215;29;20103;-73
2023/10/05 04:48:18;;;;;;;9.77;4.70;;;11.50;99.90;;;;;;4955705;29;20035;-74
2023/10/05 04:50:47;;;;;;;10.13;3.88;;;11.60;99.90;;;;;;4955374;29;20098;-72
2023/10/05 04:53:14;;;;;;;12.98;4.45;;;11.60;99.90;;;;;;4955448;29;20042;-73
2023/10/05 04:55:44;;;;;;;14.90;4.82;;;11.50;99.90;;;;;;4956637;28;20462;-73
2023/10/05 04:58:30;;;;;;;10.80;4.70;;;11.50;99.90;;;;;;4960277;28;20105;-72
2023/10/05 05:06:12;;;;;;;10.52;4.88;;;11.50;99.90;;;;;;4955238;29;20097;-73
2023/10/05 05:08:38;;;;;;;17.92;5.78;;;11.60;99.90;;;;;;4955096;29;20368;-73
2023/10/05 05:11:18;;;;;;;11.65;5.88;;;11.70;99.90;;;;;;4954831;28;20101;-73
2023/10/05 05:13:46;;;;;;;15.30;5.82;;;12.00;99.90;;;;;;4955224;29;20028;-73
2023/10/05 05:16:14;;;;;;;17.85;5.28;;;12.10;99.90;;;;;;4955097;29;20488;-73
2023/10/05 05:18:42;;;;;;;11.80;5.38;;;12.20;99.90;;;;;;4947652;29;20027;-73
2023/10/05 05:21:08;;;;;;;10.85;5.22;;;12.30;99.90;;;;;;4954757;29;20379;-73
2023/10/05 05:23:37;;;;;;;13.43;4.72;;;12.20;99.90;;;;;;4955418;29;20023;-73
2023/10/05 05:26:03;;;;;;;12.60;5.10;;;12.30;99.90;;;;;;4955241;29;20106;-73
2023/10/05 05:28:30;;;;;;;14.30;4.43;;;12.60;99.90;;;;;;4956503;28;20019;-73
2023/10/05 05:31:06;;;;;;;11.60;4.53;;;13.40;99.90;;;;;;4954902;29;20110;-73
2023/10/05 05:33:35;;;;;;;10.45;5.22;;;14.00;99.90;;;;;;4952843;29;20027;-74
2023/10/05 05:36:06;;;;;;;14.00;5.13;;;14.50;99.90;;;;;;4947630;29;20472;-73
2023/10/05 05:38:33;;;;;;;14.00;5.30;;;14.80;99.90;;;;;;4954693;29;20102;-73
2023/10/05 05:40:59;;;;;;;12.30;4.65;;;15.40;99.90;;;;;;4954715;29;20114;-74
2023/10/05 05:43:29;;;;;;;10.65;5.50;;;15.60;99.90;;;;;;4954590;29;20035;-73
2023/10/05 05:45:54;;;;;;;11.10;4.97;;;15.30;99.90;;;;;;4954608;29;20502;-72
2023/10/05 05:48:21;;;;;;;10.00;4.72;;;15.20;99.90;;;;;;4954556;29;20035;-73
2023/10/05 05:50:46;;;;;;;10.65;5.18;;;15.30;99.90;;;;;;4954820;29;20040;-73
2023/10/05 05:53:12;;;;;;;10.35;5.03;;;15.40;99.90;;;;;;4954599;29;20026;-73
2023/10/05 05:55:44;;;;;;;7.85;4.20;;;15.40;99.90;;;;;;4963550;28;20031;-73
2023/10/05 05:58:14;;;;;;;11.35;3.83;;;15.70;99.90;;;;;;4954824;29;20031;-73
2023/10/05 06:00:40;;;;;;;10.50;3.83;;;15.30;99.90;;;;;;4954698;29;20486;-74
2023/10/05 06:03:11;;;;;;;11.90;4.47;;;14.90;99.90;;;;;;4954733;29;20031;-73
2023/10/05 06:05:36;;;;;;;10.48;4.63;;;14.70;99.90;;;;;;4954376;29;20031;-73
2023/10/05 06:08:03;;;;;;;12.10;4.30;;;14.50;99.90;;;;;;4954618;29;20015;-73
2023/10/05 06:10:34;;;;;;;11.70;4.78;;;14.60;99.90;;;;;;4954412;29;20046;-73
2023/10/05 06:13:01;;;;;;;8.38;4.53;;;14.60;99.90;;;;;;4954678;29;20106;-73
2023/10/05 06:15:29;;;;;;;10.45;4.15;;;14.50;99.90;;;;;;4954351;29;20033;-73
2023/10/05 06:17:55;;;;;;;10.40;4.35;;;14.40;99.90;;;;;;4954577;29;20027;-73
2023/10/05 06:20:21;;;;;;;8.82;4.03;;;14.50;99.90;;;;;;4954053;29;20030;-73
2023/10/05 06:22:49;;;;;;;13.82;5.20;;;14.60;99.90;;;;;;4946256;29;20024;-72
2023/10/05 06:25:16;;;;;;;18.13;5.63;;;14.80;99.90;;;;;;4942969;29;20050;-73
2023/10/05 06:27:46;;;;;;;10.32;4.63;;;14.90;99.90;;;;;;4954967;29;20019;-73
2023/10/05 06:30:13;;;;;;;12.63;4.82;;;14.90;99.90;;;;;;4957317;29;20372;-73
2023/10/05 06:32:40;;;;;;;13.35;5.15;;;15.00;99.90;;;;;;4958103;29;20031;-73
2023/10/05 06:35:09;;;;;;;10.35;4.57;;;14.90;99.90;;;;;;4957881;29;20031;-73
2023/10/05 06:37:41;;;;;;;10.65;4.90;;;15.10;99.90;;;;;;4957447;29;20352;-73
2023/10/05 06:40:13;;;;;;;15.05;5.82;;;15.20;99.90;;;;;;4950122;29;20032;-73
2023/10/05 06:42:41;;;;;;;12.27;5.57;;;15.10;99.90;;;;;;4957758;29;20038;-73
2023/10/05 06:45:12;;;;;;;17.88;5.38;;;15.30;99.90;;;;;;4956332;29;20131;-73
2023/10/05 06:47:38;;;;;;;20.65;5.88;;;15.50;99.90;;;;;;4957810;29;20106;-73
2023/10/05 06:50:08;;;;;;;8.68;5.38;;;15.40;99.90;;;;;;4957634;29;20035;-73
2023/10/05 06:52:39;;;;;;;19.25;5.93;;;15.40;99.90;;;;;;4957577;29;20034;-73
2023/10/05 06:55:11;;;;;;;14.57;5.80;;;15.60;99.90;;;;;;4957343;29;20239;-72
2023/10/05 06:57:38;;;;;;;13.10;5.22;;;15.90;99.90;;;;;;4951033;29;20031;-73
2023/10/05 07:00:22;;;;;;;10.50;5.28;;;15.90;99.90;;;;;;4957509;29;20454;-73
2023/10/05 07:02:50;;;;;;;10.30;3.97;;;15.90;99.90;;;;;;4957299;29;20034;-73
2023/10/05 07:05:16;;;;;;;10.35;4.18;;;15.80;99.90;;;;;;4957441;29;20024;-73
2023/10/05 07:07:43;;;;;;;8.77;4.20;;;15.80;99.90;;;;;;4957066;29;20023;-73
2023/10/05 07:10:16;;;;;;;13.10;4.07;;;15.90;99.90;;;;;;4956794;29;20027;-73
2023/10/05 07:12:47;;;;;;;8.43;3.65;;;15.90;99.90;;;;;;4956747;29;20376;-73
2023/10/05 07:15:23;;;;;;;7.95;3.45;;;15.90;99.90;;;;;;4956910;29;20023;-73
2023/10/05 07:17:49;;;;;;;6.97;3.67;;;15.90;99.90;;;;;;4956516;29;20035;-73
2023/10/05 07:20:16;;;;;;;12.95;4.07;;;16.00;99.90;;;;;;4956330;29;20023;-73
2023/10/05 07:22:44;;;;;;;6.63;3.20;;;16.00;99.90;;;;;;4956521;29;20066;-73
2023/10/05 07:25:11;;;;;;;8.48;4.05;;;16.20;99.90;;;;;;4956679;29;20498;-73
2023/10/05 07:27:41;;;;;;;7.57;3.55;;;16.10;99.90;;;;;;4945239;29;20167;-73
2023/10/05 07:30:11;;;;;;;7.68;3.35;;;16.50;99.90;;;;;;4956171;29;20050;-73
2023/10/05 07:32:38;;;;;;;9.00;3.90;;;16.60;99.90;;;;;;4956490;29;20171;-73
2023/10/05 07:35:08;;;;;;;9.07;3.40;;;16.80;99.90;;;;;;4956584;28;20114;-74
2023/10/05 07:37:35;;;;;;;6.88;3.40;;;17.10;99.90;;;;;;4955993;29;20026;-73
2023/10/05 07:40:04;;;;;;;8.77;3.47;;;17.40;99.90;;;;;;4947619;29;20150;-73
2023/10/05 07:42:30;;;;;;;7.30;3.35;;;17.40;98.90;;;;;;4956798;29;20467;-73
2023/10/05 07:44:58;;;;;;;9.52;3.78;;;17.50;99.00;;;;;;4946475;29;20035;-72
2023/10/05 07:47:24;;;;;;;8.35;3.53;;;17.20;99.50;;;;;;4956014;29;20197;-74
2023/10/05 07:49:54;;;;;;;7.55;3.00;;;17.60;99.90;;;;;;4955892;29;20118;-74
2023/10/05 07:52:20;;;;;;;10.15;4.68;;;17.50;99.30;;;;;;4955832;29;20090;-74
2023/10/05 07:54:46;;;;;;;12.50;3.97;;;17.60;99.30;;;;;;4956384;29;20034;-72
2023/10/05 07:57:13;;;;;;;7.88;3.25;;;17.70;99.90;;;;;;4955923;29;20098;-72
2023/10/05 07:59:42;;;;;;;9.85;3.33;;;17.70;99.60;;;;;;4947969;29;20082;-73
2023/10/05 08:02:13;;;;;;;8.82;3.40;;;17.90;98.50;;;;;;4955553;29;20041;-72
2023/10/05 08:04:40;;;;;;;8.15;3.38;;;18.20;99.10;;;;;;4956346;29;20419;-72
2023/10/05 08:07:08;;;;;;;6.63;3.22;;;18.40;99.50;;;;;;4955610;29;20019;-73
2023/10/05 08:09:34;;;;;;;9.35;3.40;;;18.30;97.10;;;;;;4954956;29;20019;-73
2023/10/05 08:12:00;;;;;;;8.43;3.50;;;18.40;98.90;;;;;;4955066;29;20082;-73
2023/10/05 08:14:27;;;;;;;8.13;3.15;;;18.50;97.00;;;;;;4955741;29;20094;-73
2023/10/05 08:16:55;;;;;;;12.80;3.67;;;18.60;97.20;;;;;;4955794;29;20379;-73
2023/10/05 08:19:24;;;;;;;9.70;2.97;;;18.80;97.20;;;;;;4955257;29;20037;-73
2023/10/05 08:21:53;;;;;;;7.57;2.78;;;18.90;96.60;;;;;;4955230;29;20094;-73
2023/10/05 08:24:20;;;;;;;7.07;2.75;;;19.10;93.50;;;;;;4952916;29;20034;-72
2023/10/05 08:26:49;;;;;;;11.30;3.28;;;19.00;94.70;;;;;;4956011;29;20050;-73
2023/10/05 08:29:18;;;;;;;9.75;3.22;;;19.20;94.60;;;;;;4955814;29;20039;-73
2023/10/05 08:31:44;;;;;;;7.28;3.10;;;19.00;95.20;;;;;;4955236;29;20553;-73
2023/10/05 08:34:20;;;;;;;9.10;3.15;;;18.80;93.80;;;;;;4943781;29;20480;-72
2023/10/05 08:36:54;;;;;;;8.63;3.63;;;18.60;94.40;;;;;;4955419;29;20039;-73
2023/10/05 08:39:27;;;;;;;5.55;2.85;;;18.80;94.90;;;;;;4937751;29;20031;-73
2023/10/05 08:42:03;;;;;;;9.57;3.53;;;19.00;95.30;;;;;;4953045;29;20019;-74
2023/10/05 08:44:30;;;;;;;10.85;4.13;;;19.30;94.10;;;;;;4955394;28;20054;-74
2023/10/05 08:46:59;;;;;;;10.45;3.28;;;19.30;95.50;;;;;;4954737;28;20043;-74
2023/10/05 08:49:28;;;;;;;8.57;3.75;;;19.30;93.90;;;;;;4955423;29;20039;-74
2023/10/05 08:51:54;;;;;;;13.18;4.45;;;19.40;93.40;;;;;;4955340;29;20192;-74
2023/10/05 08:54:28;;;;;;;7.57;3.10;;;19.70;93.90;;;;;;4955192;29;20037;-73
2023/10/05 08:56:58;;;;;;;12.85;3.08;;;19.70;92.90;;;;;;4943517;29;20106;-73
2023/10/05 08:59:26;;;;;;;5.82;2.70;;;19.80;92.60;;;;;;4955116;29;20027;-74
2023/10/05 09:01:56;;;;;;;7.35;3.28;;;19.80;93.00;;;;;;4951157;29;20030;-74
2023/10/05 09:04:24;;;;;;;7.88;2.67;;;19.90;91.50;;;;;;4950635;29;20479;-74
2023/10/05 09:06:57;;;;;;;7.65;3.47;;;20.00;92.40;;;;;;4955387;29;20043;-74
2023/10/05 09:09:51;;;;;;;7.10;2.75;;;20.00;90.90;;;;;;4954520;29;20090;-74
2023/10/05 09:12:46;;;;;;;7.72;2.42;;;19.80;90.80;;;;;;4953766;29;20035;-73
2023/10/05 09:17:59;;;;;;;11.27;3.78;;;19.20;90.40;;;;;;4954238;29;20068;-74
2023/10/05 09:20:31;;;;;;;7.28;2.70;;;19.30;91.20;;;;;;4954451;29;20081;-73
2023/10/05 09:23:00;;;;;;;9.23;3.00;;;19.40;91.40;;;;;;4947470;29;20369;-74
2023/10/05 09:25:35;;;;;;;9.95;3.22;;;19.60;92.40;;;;;;4954623;29;20034;-73
2023/10/05 09:28:19;;;;;;;6.03;2.72;;;19.60;90.00;;;;;;4950871;29;20031;-73
2023/10/05 09:30:56;;;;;;;8.98;3.25;;;19.80;91.50;;;;;;4952168;29;20062;-74
2023/10/05 09:33:28;;;;;;;7.53;2.75;;;19.90;90.70;;;;;;4944078;28;20086;-74
2023/10/05 09:36:01;;;;;;;6.00;2.88;;;19.90;91.90;;;;;;4959883;28;20031;-73
2023/10/05 09:38:30;;;;;;;7.85;2.63;;;20.00;91.80;;;;;;4955236;29;20020;-74
2023/10/05 09:41:02;;;;;;;5.97;2.85;;;20.20;90.80;;;;;;4953738;29;20027;-73
2023/10/05 09:43:37;;;;;;;7.90;3.08;;;20.40;91.10;;;;;;4954809;29;20031;-73
2023/10/05 09:46:05;;;;;;;9.30;3.30;;;20.60;91.20;;;;;;4954411;29;20378;-74
2023/10/05 09:48:37;;;;;;;7.65;3.13;;;20.60;89.30;;;;;;4951021;29;20031;-73
2023/10/05 09:51:11;;;;;;;7.35;3.22;;;20.80;90.10;;;;;;4953736;28;20035;-74
2023/10/05 09:53:41;;;;;;;6.32;3.58;;;20.90;88.60;;;;;;4969168;28;20105;-73
2023/10/05 09:56:11;;;;;;;12.13;4.13;;;21.00;90.20;;;;;;4956753;28;20497;-74
2023/10/05 09:58:41;;;;;;;8.70;4.25;;;21.00;86.20;;;;;;4962656;28;20082;-74
2023/10/05 10:01:30;;;;;;;7.57;3.35;;;20.90;89.30;;;;;;4953334;28;20459;-74
2023/10/05 10:03:55;;;;;;;6.53;2.85;;;20.90;88.50;;;;;;4965642;28;20499;-74
2023/10/05 10:06:28;;;;;;;8.30;3.25;;;21.00;86.40;;;;;;4957221;29;20015;-74
2023/10/05 10:09:09;;;;;;;3.90;2.70;;;20.90;87.10;;;;;;4958795;28;20341;-74
2023/10/05 10:11:36;;;;;;;10.88;3.00;;;20.90;86.30;;;;;;4951951;28;20427;-74
2023/10/05 10:14:09;;;;;;;6.47;2.95;;;21.20;86.70;;;;;;4960895;28;20081;-73
2023/10/05 10:16:41;;;;;;;5.63;2.67;;;21.10;86.80;;;;;;4956967;29;20106;-73
2023/10/05 10:19:20;;;;;;;11.73;3.00;;;21.20;84.10;;;;;;4948015;29;20037;-74
2023/10/05 10:21:49;;;;;;;8.63;2.85;;;21.30;85.70;;;;;;4961223;28;20387;-73
2023/10/05 10:24:19;;;;;;;6.88;2.90;;;21.20;84.50;;;;;;4957677;29;20063;-74
2023/10/05 10:26:45;;;;;;;6.30;3.13;;;21.40;85.30;;;;;;4958189;29;20110;-74
2023/10/05 10:29:16;;;;;;;25.13;4.47;;;21.50;85.40;;;;;;4958237;29;20015;-73
2023/10/05 10:31:42;;;;;;;8.25;2.47;;;21.60;85.90;;;;;;4957787;29;20046;-74
2023/10/05 10:34:28;;;;;;;7.32;2.95;;;21.70;84.80;;;;;;4958307;29;20023;-71
2023/10/05 10:36:56;;;;;;;8.35;2.92;;;21.80;82.90;;;;;;4957914;29;20085;-74
2023/10/05 10:39:23;;;;;;;5.05;3.17;;;21.50;84.60;;;;;;4957986;29;20024;-73
2023/10/05 10:42:12;;;;;;;5.85;2.60;;;21.60;84.50;;;;;;4957663;29;20039;-73
2023/10/05 10:47:22;;;;;;;6.60;2.15;;;21.60;82.40;;;;;;4957721;29;20055;-73
2023/10/05 10:50:11;;;;;;;4.50;2.30;;;21.40;85.90;;;;;;4957826;29;20031;-74
2023/10/05 10:52:38;;;;;;;8.13;2.25;;;21.40;83.70;;;;;;4957880;29;20039;-74
2023/10/05 10:55:09;;;;;;;9.65;2.63;;;21.60;83.50;;;;;;4957589;29;20423;-74
2023/10/05 10:57:36;;;;;;;5.35;2.83;;;21.90;84.00;;;;;;4957641;29;20098;-73
2023/10/05 11:02:48;;;;;;;9.68;3.50;;;22.30;84.10;;;;;;4957354;29;20027;-72
2023/10/05 11:05:15;;;;;;;6.28;2.25;;;22.30;81.80;;;;;;4957547;29;20102;-72
2023/10/05 11:07:44;;;;;;;5.78;2.08;;;22.50;81.70;;;;;;4956995;29;20087;-72
2023/10/05 11:10:18;;;;;;;5.10;2.38;;;22.40;80.40;;;;;;4956506;28;20030;-72
2023/10/05 11:12:53;;;;;;;7.78;2.03;;;22.20;80.20;;;;;;4957383;29;20449;-71
2023/10/05 11:15:22;;;;;;;8.75;2.67;;;22.30;81.40;;;;;;4957217;29;20456;-72
2023/10/05 11:17:55;;;;;;;7.00;2.30;;;22.20;79.70;;;;;;4957272;29;20074;-72
2023/10/05 11:20:25;;;;;;;6.40;2.40;;;22.20;81.30;;;;;;4957268;29;20044;-72
2023/10/05 11:23:03;;;;;;;10.02;3.03;;;22.00;79.90;;;;;;4957066;29;20025;-72
2023/10/05 11:25:32;;;;;;;6.13;2.47;;;22.00;81.10;;;;;;4956817;29;20035;-72
2023/10/05 11:28:00;;;;;;;4.43;2.15;;;21.90;80.70;;;;;;4957184;29;20019;-74
2023/10/05 11:30:41;;;;;;;10.43;2.80;;;21.80;79.60;;;;;;4956821;29;20047;-74
2023/10/05 11:33:15;;;;;;;9.88;2.80;;;21.90;79.80;;;;;;4957278;29;20110;-72
2023/10/05 11:35:51;;;;;;;6.15;2.53;;;21.80;79.10;;;;;;4956862;29;20085;-72
2023/10/05 11:38:19;;;;;;;9.35;3.22;;;21.70;78.60;;;;;;4956635;29;20098;-72
2023/10/05 11:40:49;;;;;;;12.20;2.80;;;21.80;79.80;;;;;;4956660;29;20023;-72
2023/10/05 11:43:18;;;;;;;6.20;2.30;;;21.80;80.70;;;;;;4956570;29;20483;-73
2023/10/05 11:46:17;;;;;;;9.95;3.03;;;21.80;79.60;;;;;;4956832;29;20073;-72
2023/10/05 11:48:56;;;;;;;7.25;2.85;;;21.90;80.30;;;;;;4939107;29;20039;-72
2023/10/05 11:51:27;;;;;;;5.88;2.97;;;21.80;79.80;;;;;;4956294;29;20035;-72
2023/10/05 11:53:57;;;;;;;6.07;3.03;;;21.80;80.60;;;;;;4956635;29;20463;-72
2023/10/05 11:56:30;;;;;;;17.88;2.65;;;21.70;80.70;;;;;;4956555;29;20120;-74
2023/10/05 11:58:59;;;;;;;5.47;2.78;;;21.80;80.60;;;;;;4956621;29;20055;-73
2023/10/05 12:01:26;;;;;;;8.18;3.30;;;21.90;80.60;;;;;;4956306;29;20501;-73
2023/10/05 12:03:51;;;;;;;8.00;3.05;;;22.00;80.10;;;;;;4956527;29;20480;-73
2023/10/05 12:06:23;;;;;;;6.90;2.97;;;22.00;80.30;;;;;;4955949;29;20030;-73
2023/10/05 12:09:27;;;;;;;8.20;2.83;;;21.90;80.00;;;;;;4956344;29;20415;-73
2023/10/05 12:11:54;;;;;;;7.90;2.95;;;21.80;81.00;;;;;;4956230;29;20035;-73
2023/10/05 12:14:20;;;;;;;10.77;3.67;;;21.80;80.70;;;;;;4956125;29;20027;-72
2023/10/05 12:16:46;;;;;;;8.80;3.10;;;21.80;80.10;;;;;;4956424;29;20034;-74
2023/10/05 12:19:15;;;;;;;8.95;3.47;;;21.90;80.00;;;;;;4956074;29;20023;-73
2023/10/05 12:21:44;;;;;;;13.02;3.30;;;21.80;78.70;;;;;;4955652;28;20473;-73
2023/10/05 12:24:11;;;;;;;10.43;3.30;;;21.90;80.60;;;;;;4955665;29;20118;-72
2023/10/05 12:26:43;;;;;;;4.70;2.75;;;22.00;80.10;;;;;;4956121;29;20042;-72
2023/10/05 12:29:12;;;;;;;11.18;3.25;;;22.20;81.40;;;;;;4955804;29;20486;-73
2023/10/05 12:31:45;;;;;;;7.07;2.90;;;22.10;79.10;;;;;;4955842;29;20356;-73
2023/10/05 12:34:15;;;;;;;10.13;3.67;;;22.20;79.40;;;;;;4944023;29;20368;-73
2023/10/05 12:36:49;;;;;;;13.48;3.05;;;22.30;79.70;;;;;;4938556;29;20117;-73
2023/10/05 12:39:27;;;;;;;6.72;2.90;;;22.40;80.60;;;;;;4955823;29;20031;-73
2023/10/05 12:41:54;;;;;;;7.68;3.05;;;22.30;78.90;;;;;;4955561;29;20388;-73
2023/10/05 12:44:21;;;;;;;10.93;3.10;;;22.40;81.40;;;;;;4956001;29;20387;-73
2023/10/05 12:46:47;;;;;;;7.50;3.33;;;22.50;79.70;;;;;;4955250;29;20066;-73
2023/10/05 12:49:17;;;;;;;8.30;3.15;;;22.50;78.90;;;;;;4955609;29;20114;-73
2023/10/05 12:51:45;;;;;;;13.48;3.75;;;22.40;78.20;;;;;;4955397;29;20554;-73
2023/10/05 12:54:34;;;;;;;6.75;2.90;;;22.40;78.50;;;;;;4955490;29;20023;-72
2023/10/05 12:57:08;;;;;;;7.32;2.92;;;22.40;80.30;;;;;;4955204;29;20526;-72
2023/10/05 12:59:34;;;;;;;8.55;3.10;;;22.40;78.30;;;;;;4955156;29;20031;-73
2023/10/05 13:02:07;;;;;;;8.07;3.38;;;22.30;77.50;;;;;;4955391;29;20018;-72
2023/10/05 13:04:32;;;;;;;5.80;2.92;;;22.30;77.40;;;;;;4955215;29;20031;-72
2023/10/05 13:06:58;;;;;;;9.75;3.90;;;22.40;78.10;;;;;;4955288;29;20031;-74
2023/10/05 13:09:24;;;;;;;10.75;2.92;;;22.50;78.70;;;;;;4942465;29;20039;-74
2023/10/05 13:11:50;;;;;;;14.63;3.80;;;22.50;78.40;;;;;;4955378;29;20031;-74
2023/10/05 13:14:19;;;;;;;10.45;3.20;;;22.50;78.80;;;;;;4954889;29;20042;-74
2023/10/05 13:16:48;;;;;;;16.55;3.50;;;22.60;77.60;;;;;;4955275;29;20034;-73
2023/10/05 13:19:14;;;;;;;10.98;3.42;;;22.60;77.30;;;;;;4955003;29;20486;-74
2023/10/05 13:21:42;;;;;;;9.05;2.78;;;22.60;78.20;;;;;;4955308;29;20067;-74
2023/10/05 13:24:11;;;;;;;6.20;2.78;;;22.50;77.20;;;;;;4954914;29;20035;-73